Tiempo atmosférico en la estación meteorológica de Somosierra, Madrid (1450 m.)



Fecha
DESCASC
Temp. máxima en grados centígrados (hora)
DESCASC
Temp. mínima en grados centígrados (hora)
DESCASC
Temp. media en grados centígrados
DESCASC
Racha de viento máxima en m/sg (hora)
DESCASC
Velocidad máxima media en intervalos de 10 minutos(hora)
DESCASC
Precipitaciones diarias en mm
DESCASC
Precipitaciones de 00:00 a 06:00 en mm
DESCASC
Precipitaciones de 06:00 a 12:00 en mm
DESCASC
Precipitaciones de 12:00 a 18:00 en mm
DESCASC
Precipitaciones de 18:00 a 24:00 en mm
DESCASC
17-09-2020 -- (--) -- (--) -- -- (--) -- (--) 22 1.2 0.8 0 20
16-09-2020 -- (--) -- (--) -- -- (--) -- (--) 0 0 0 0 0
15-09-2020 -- (--) -- (--) -- -- (--) -- (--) 6.7 6.7 0 0 0
14-09-2020 -- (--) -- (--) -- -- (--) -- (--) 0 0 0 0 0
13-09-2020 -- (--) -- (--) -- -- (--) -- (--) 0 0 0 0 0
12-09-2020 -- (--) -- (--) -- -- (--) -- (--) 0 0 0 0 0
11-09-2020 -- (--) -- (--) -- -- (--) -- (--) 0 0 0 0 0
10-09-2020 -- (--) -- (--) -- -- (--) -- (--) 0 0 0 0 0
09-09-2020 -- (--) -- (--) -- -- (--) -- (--) 0 0 0 0 0
08-09-2020 -- (--) -- (--) -- -- (--) -- (--) 0 0 0 0 0
07-09-2020 -- (--) -- (--) -- -- (--) -- (--) 0 0 0 0 0
06-09-2020 -- (--) -- (--) -- -- (--) -- (--) 0 0 0 0 0
05-09-2020 -- (--) -- (--) -- -- (--) -- (--) 0 0 0 0 0
04-09-2020 -- (--) -- (--) -- -- (--) -- (--) 0 0 0 0 0
03-09-2020 -- (--) -- (--) -- -- (--) -- (--) 0 0 0 0 0
02-09-2020 -- (--) -- (--) -- -- (--) -- (--) 0 0 0 0 0
01-09-2020 -- (--) -- (--) -- -- (--) -- (--) 0 0 0 0 0
31-08-2020 -- (--) -- (--) -- -- (--) -- (--) 0 0 0 0 0
30-08-2020 -- (--) -- (--) -- -- (--) -- (--) 0 0 0 0 0
29-08-2020 -- (--) -- (--) -- -- (--) -- (--) 0 0 0 0 0
28-08-2020 -- (--) -- (--) -- -- (--) -- (--) 0 0 0 0 0
27-08-2020 -- (--) -- (--) -- -- (--) -- (--) 0 0 0 0 0
26-08-2020 -- (--) -- (--) -- -- (--) -- (--) 0 0 0 0 0
25-08-2020 -- (--) -- (--) -- -- (--) -- (--) 0 0 0 0 0
24-08-2020 -- (--) -- (--) -- -- (--) -- (--) 0 0 0 0 0
23-08-2020 -- (--) -- (--) -- -- (--) -- (--) 0 0 0 0 0
22-08-2020 -- (--) -- (--) -- -- (--) -- (--) 0 0 0 0 0
21-08-2020 26.7 (14:40) 14.3 (00:00) 20.5 8.61 (15:30) 4.17 (15:30) 8.9 0 0 1.5 7.4

Gráficas

Temp. máximas Temp. mínimas Temp. medias Precipitaciones Rachas de viento máximas Velocidades máximas media en intervalos de 10 minutos

Datos horarios

Fecha y hora oficial Temperatura (ºC) Velocidad del viento (km/h) Dirección del viento Racha (km/h) Dirección de racha Precipitación (mm) Presión (hPa) Tendencia (hPa) Humedad (%)
2020-09-19 23:00:00 10.5 4 Oeste 15 Oeste 0 858 1.8 91
2020-09-19 22:00:00 10.6 4 Oeste 16 Sudoeste 0 857.8 1.9 89
2020-09-19 21:00:00 10.5 3 Norte 14 Sur 0 856.9 1.4 91
2020-09-19 20:00:00 11.4 3 Sudeste 18 Sudoeste 0 856.2 0.5 82
2020-09-19 19:00:00 14.3 8 Sudoeste 24 Sudoeste 0 855.9 0.2 76
2020-09-19 18:00:00 14.8 6 Sudoeste 30 Sudoeste 0.2 855.5 -0.4 89
2020-09-19 17:00:00 13.2 6 Sur 29 Oeste 0 855.7 0 88
2020-09-19 16:00:00 12 7 Sudoeste 22 Oeste 1.3 855.7 -- 91
2020-09-19 15:00:00 11.6 10 Sudoeste 31 Oeste 0.5 855.9 -- 86
2020-09-19 14:00:00 12.9 12 Sudoeste 28 Sudoeste 0 855.7 -- 83
2020-09-19 13:00:00 12.2 11 Sur 27 Sudoeste 0 855.7 -- 94
2020-09-19 12:00:00 11 12 Sur 32 Sudeste 0 854.9 -- 99
2020-09-19 11:00:00 10.5 13 Sur 31 Sur 0 854.8 -- 99
2020-09-19 10:00:00 10.3 18 Sur 35 Sur 0.1 854.2 -- 99
2020-09-19 09:00:00 10.2 20 Sur 38 Sur 0.7 853.8 -- 99
2020-09-19 08:00:00 10.1 21 Sur 39 Sur 1.8 853.3 -- 99
2020-09-19 07:00:00 10 17 Sur 31 Sur 1.9 853 -- 99
2020-09-19 06:00:00 9.7 16 Sur 37 Sur 0.2 853.1 -- 99
2020-09-19 05:00:00 9.8 21 Sur 37 Sur 0 853.2 -- 99
2020-09-19 04:00:00 10.1 21 Sur 40 Sur 0.2 853.5 -- 99
2020-09-19 03:00:00 10.5 14 Sudeste 36 Sur 7.5 853.1 -- 96
2020-09-19 02:00:00 10.8 13 Sur 47 Sur 11.6 853 -- 99
2020-09-19 01:00:00 10.7 26 Sur 54 Sur 5.5 853.1 -- 98
2020-09-19 00:00:00 10.5 21 Sur 38 Sur 1.7 853.6 -- 96
2020-09-18 23:00:00 10.4 20 Sur 36 Sur 0 854.3 -- 96
2020-09-18 22:00:00 9.7 14 Sur 30 Sudeste 0 853.9 -- 96
2020-09-18 21:00:00 9.8 15 Sur 31 Sudeste 0.1 853.3 -- 97
2020-09-18 20:00:00 10.3 12 Sur 33 Sur 5.6 853.5 -- 99
2020-09-18 19:00:00 10.4 19 Sur 39 Sur 6.6 854.2 -- 99
2020-09-18 18:00:00 12.5 12 Sur 33 Sur 0 853.7 -- 92
2020-09-18 17:00:00 12.7 18 Sur 32 Sur 0 853.8 -- 88
2020-09-18 16:00:00 14.3 16 Sur 35 Sur 0 853.6 -- 77
2020-09-18 15:00:00 14.6 21 Sur 36 Sur 0 853.7 -- 76
2020-09-18 14:00:00 13.4 19 Sur 38 Sur 0 854.4 -- 89
2020-09-18 13:00:00 13 21 Sur 42 Sur 0.1 853.9 -- 94
2020-09-18 12:00:00 12.6 22 Sur 42 Sudeste 0 854.4 -- 91
2020-09-18 11:00:00 12 17 Sur 38 Sur 0 854.2 -- 95
2020-09-18 10:00:00 11.7 23 Sur 50 Sudeste 0.1 853.4 -- 96
2020-09-18 09:00:00 12 21 Sur -- -- -- 853 -- 96
2020-09-18 08:00:00 -- -- -- -- -- -- -- -- --
2020-09-18 07:00:00 -- -- -- -- -- -- -- -- --
2020-09-18 06:00:00 -- -- -- -- -- -- -- -- --
2020-09-18 05:00:00 13.6 26 Sur 58 Sur 3.9 852.2 -- 99
2020-09-18 04:00:00 12.1 14 Sur 35 Sur 13 852.5 -- 97
2020-09-18 03:00:00 12.9 9 Sur 33 Sudeste 4.7 853.8 -- 99
2020-09-18 02:00:00 12.3 9 Sudoeste 20 Sur 6.5 854.5 -- 99
2020-09-18 01:00:00 12.6 10 Sur 27 Sudeste 2.8 855 -- 98
2020-09-18 00:00:00 12.2 19 Sur 34 Sur 10.8 856.3 -- 98
2020-09-17 23:00:00 12.4 5 Sur 17 Sudeste 0.1 855.2 -- 96
2020-09-17 22:00:00 12.3 10 Sudeste 41 Sur 9.1 856.3 -- 92
2020-09-17 21:00:00 16.6 11 Sur 41 Sur 0 854.9 -- 74
2020-09-17 20:00:00 16.8 21 Sur 41 Sur 0 854.7 -- 71
2020-09-17 19:00:00 17.1 22 Sur 44 Sur 0 855 -- 69
2020-09-17 18:00:00 18.2 27 Sur 47 Sur 0 854.9 -- 66
2020-09-17 17:00:00 17.8 28 Sur 53 Sudeste 0 854.9 -- 63
2020-09-17 16:00:00 19.4 26 Sur 50 Sur 0 855.2 -- 56
2020-09-17 15:00:00 18.2 23 Sur 42 Sur 0 856.1 -- 65
2020-09-17 14:00:00 15.9 21 Sur 34 Sur 0 856.5 -- 80
2020-09-17 13:00:00 16.9 15 Sur 31 Sur 0 856.7 -- 76
2020-09-17 12:00:00 14.6 14 Sur 26 Sur 0 857.1 -- 99
2020-09-17 11:00:00 13.1 11 Sur 23 Sur 0 857.3 -- 99
2020-09-17 10:00:00 13.8 10 Sur 36 Sur 0.6 857.2 -- 96
2020-09-17 09:00:00 12.8 18 Sur 37 Sur 0.2 856.9 -- 97
2020-09-17 08:00:00 14.3 16 Sur 33 Sur 0 856.9 -- 85
2020-09-17 07:00:00 14.5 12 Sur 23 Sudeste 0 856.6 -- 81
2020-09-17 06:00:00 14.1 4 Sur 16 Sudeste 0 856.9 -- 83
2020-09-17 05:00:00 14.5 7 Sur 15 Sur 0 857.8 -- 83
2020-09-17 04:00:00 14.5 8 Sur 17 Sudoeste 0 858.1 -- 88
2020-09-17 03:00:00 15.8 8 Sudeste 20 Sudeste 0 858.4 -- 71
2020-09-17 02:00:00 14.5 6 Sur 13 Sur 0 858.6 -- 89
2020-09-17 01:00:00 14.5 8 Sudeste 51 Sur 1.2 859.5 -- 91
2020-09-17 00:00:00 19.3 9 Este 22 Nordeste 0 858.9 -- 53
2020-09-16 23:00:00 18.1 3 Sur 12 Sudeste 0 859.1 -- 53
2020-09-16 22:00:00 17.5 0 Calma 14 Sudeste 0 859.1 -- 54
2020-09-16 21:00:00 18.7 5 Sudeste 17 Sur 0 859 -- 51
2020-09-16 20:00:00 19.9 9 Sur 22 Sudoeste 0 858.8 -- 48
2020-09-16 19:00:00 22.6 12 Sur 27 Sur 0 858.6 -- 42
2020-09-16 18:00:00 22.4 13 Sur 30 Sur 0 858.8 -- 44
2020-09-16 17:00:00 23 16 Sur 38 Sudoeste 0 859.3 -- 42
2020-09-16 16:00:00 22.2 16 Sur 35 Sur 0 859.8 -- 42
2020-09-16 15:00:00 22.5 16 Sur 33 Sudoeste 0 860.5 -- 42
2020-09-16 14:00:00 21.5 13 Sudoeste 29 Sudoeste 0 861.1 -- 48
2020-09-16 13:00:00 20.7 10 Sur 21 Sur 0 861.5 -- 52
2020-09-16 12:00:00 21.5 9 Sur 17 Sur 0 861.7 -- 52
2020-09-16 11:00:00 19.7 6 Sur 13 Sur 0 861.6 -- 59
2020-09-16 10:00:00 17.8 5 Sur 14 Sur 0 861.5 -- 66
2020-09-16 09:00:00 14.5 5 Sur 11 Sur 0 861.5 -- 74
2020-09-16 08:00:00 14.4 6 Sudeste 14 Sur 0 861.5 -- 76
2020-09-16 07:00:00 12.6 4 Sudoeste 7 Sudoeste 0 861.5 -- 79
2020-09-16 06:00:00 12.8 0 Calma 7 Norte 0 861.4 -- 77
2020-09-16 05:00:00 13 2 Norte 6 Nordeste 0 861.9 -- 76
2020-09-16 04:00:00 13.1 3 Norte 6 Norte 0 862.2 -- 75
2020-09-16 03:00:00 13.5 4 Norte 6 Norte 0 862.4 -- 73
2020-09-16 02:00:00 14.5 0 Calma 9 Sudeste 0 862.5 -- 68
2020-09-16 01:00:00 15.7 4 Sudeste 13 Sudeste 0 862.5 -- 61
2020-09-16 00:00:00 15 5 Sur 12 Sudeste 0 862.5 -- 62
2020-09-15 23:00:00 15.3 3 Sudeste 11 Sudeste 0 862.4 -- 61
2020-09-15 22:00:00 16.2 6 Sudeste 16 Sudeste 0 862.2 -- 59
2020-09-15 21:00:00 16.9 10 Sudeste 15 Sudeste 0 861.8 -- 59
2020-09-15 20:00:00 18.4 6 Sudeste 19 Sur 0 861.8 -- 56
2020-09-15 19:00:00 20.3 12 Sur 27 Sudoeste 0 861.9 -- 51
2020-09-15 18:00:00 21.5 13 Sur 27 Sur 0 861.8 -- 50
2020-09-15 17:00:00 21.5 14 Sur 26 Sur 0 862 -- 52
2020-09-15 16:00:00 19.5 13 Sur 29 Sur 0 862.3 -- 56
2020-09-15 15:00:00 20.2 14 Sur 30 Sur 0 862.7 -- 60
2020-09-15 14:00:00 19 14 Sur 30 Sur 0 862.9 -- 65
2020-09-15 13:00:00 18.9 14 Sur 24 Sur 0 863.1 -- 68
2020-09-15 12:00:00 17.3 12 Sur 22 Sur 0 863.2 -- 74
2020-09-15 11:00:00 16.1 9 Sur 18 Sur 0 863.3 -- 82
2020-09-15 10:00:00 14.2 7 Sur 13 Sudeste 0 863.1 -- 96
2020-09-15 09:00:00 12.9 5 Sur 12 Sur 0 862.7 -- 98
2020-09-15 08:00:00 12.7 8 Sur 18 Sur 0 862.5 -- 98
2020-09-15 07:00:00 13 7 Sur 14 Sur 0 861.9 -- 98
2020-09-15 06:00:00 14.1 7 Sur 17 Sur 0 862.3 -- 95
2020-09-15 05:00:00 12.9 12 Sudeste 23 Sudoeste 2.5 862.2 -- 97
2020-09-15 04:00:00 14.2 10 Sur 37 Sur 4.2 862.4 -- 93
2020-09-15 03:00:00 17 20 Sur 33 Sur 0 862.3 -- 68
2020-09-15 02:00:00 17.2 17 Sur 39 Sur 0 862.1 -- 64
2020-09-15 01:00:00 16.3 3 Sudeste 33 Sur 0 862.5 -- 64
2020-09-15 00:00:00 18.8 20 Sur 36 Sur 0 862.1 -- 54
2020-09-14 23:00:00 19.1 23 Sur 37 Sur 0 862 -- 53
2020-09-14 22:00:00 19.7 15 Sur 31 Sur 0 861.7 -- 52
2020-09-14 21:00:00 20.1 15 Sur 32 Sur 0 861.3 -- 51
2020-09-14 20:00:00 21 19 Sur 37 Sudeste 0 861.5 -- 50
2020-09-14 19:00:00 21 18 Sur 33 Sur 0 861.7 -- 52
2020-09-14 18:00:00 20.7 13 Sur 23 Sur 0 861.7 -- 57
2020-09-14 17:00:00 19.6 13 Sur 27 Sur 0 862.4 -- 59
2020-09-14 16:00:00 19.1 16 Sur 28 Sur 0 862.9 -- 58
2020-09-14 15:00:00 19.1 14 Sur 26 Sur 0 863.4 -- 60
2020-09-14 14:00:00 19.6 15 Sur 28 Sur 0 864 -- 59
2020-09-14 13:00:00 19.6 16 Sur 29 Sur 0 863.7 -- 60
2020-09-14 12:00:00 18 12 Sur 28 Sudoeste 0 863.8 -- 64
2020-09-14 11:00:00 18.5 15 Sur 27 Sudoeste 0 864.1 -- 63
2020-09-14 10:00:00 16.2 9 Sur 24 Sur 0 864 -- 73
2020-09-14 09:00:00 15.2 12 Sur 22 Sur 0 864 -- 74
2020-09-14 08:00:00 14.9 13 Sur 31 Sur 0 863.5 -- 76
2020-09-14 07:00:00 15.6 18 Sur 36 Sur 0 863.1 -- 72
2020-09-14 06:00:00 16 19 Sur 38 Sur 0 863.1 -- 73
2020-09-14 05:00:00 15.6 15 Sur 35 Sur 0 863.8 -- 69
2020-09-14 04:00:00 16.3 17 Sur 35 Sur 0 863.9 -- 65
2020-09-14 03:00:00 16.7 19 Sur 35 Sur 0 864.3 -- 61
2020-09-14 02:00:00 17.5 19 Sur 41 Sur 0 864.5 -- 56
2020-09-14 01:00:00 18.9 22 Sur 39 Sur 0 864.3 -- 49
2020-09-14 00:00:00 19.6 14 Sur 26 Sudeste 0 863.8 -- 46
2020-09-13 23:00:00 20.2 12 Sur 24 Sur 0 864 -- 45
2020-09-13 22:00:00 20.4 10 Sudeste 19 Sur 0 864.2 -- 45
2020-09-13 21:00:00 20.6 10 Sur 30 Sudeste 0 863.7 -- 42
2020-09-13 20:00:00 23.1 11 Sur 27 Sudeste 0 863.6 -- 39
2020-09-13 19:00:00 23.8 14 Sur 24 Sudeste 0 863.5 -- 39
2020-09-13 18:00:00 24.1 12 Sur 28 Sur 0 863.6 -- 38
2020-09-13 17:00:00 22.5 15 Sur 33 Sur 0 864.1 -- 42
2020-09-13 16:00:00 25.2 19 Sur 38 Sudoeste 0 864.3 -- 37
2020-09-13 15:00:00 23.8 15 Sur 30 Sur 0 864.5 -- 42
2020-09-13 14:00:00 24.3 15 Sur 29 Sudoeste 0 864.8 -- 45
2020-09-13 13:00:00 22.8 15 Sur 29 Sur 0 864.8 -- 49
2020-09-13 12:00:00 21.2 16 Sur 28 Sur 0 864.9 -- 53
2020-09-13 11:00:00 20.1 13 Sur 23 Sur 0 864.8 -- 59
2020-09-13 10:00:00 17.7 12 Sur 18 Sur 0 864.4 -- 65
2020-09-13 09:00:00 14.8 10 Sur 14 Sur 0 864.2 -- 73
2020-09-13 08:00:00 14.5 8 Sur 13 Sur 0 863.6 -- 73
2020-09-13 07:00:00 14.4 9 Sur 14 Sur 0 863.6 -- 70
2020-09-13 06:00:00 15.1 8 Sur 16 Sur 0 863.1 -- 69
2020-09-13 05:00:00 15.1 8 Sur 18 Sur 0 863.2 -- 65
2020-09-13 04:00:00 16 10 Sur 18 Sudeste 0 863.2 -- 61
2020-09-13 03:00:00 17.1 10 Sur 22 Sudoeste 0 863.1 -- 54
2020-09-13 02:00:00 18.2 6 Sudeste 18 Sudeste 0 862.7 -- 47
2020-09-13 01:00:00 18.4 6 Sudeste 22 Este 0 862.9 -- 42
2020-09-13 00:00:00 18.7 7 Sudeste 17 Sudeste 0 862.7 -- 42
2020-09-12 23:00:00 18.9 5 Sudeste 15 Sudeste 0 862.3 -- 42
2020-09-12 22:00:00 18.8 4 Sur 11 Sudeste 0 862.1 -- 42
2020-09-12 21:00:00 18.9 0 Calma 7 Sudoeste 0 861.4 -- 36
2020-09-12 20:00:00 22.1 2 Norte 11 Noroeste 0 861.1 -- 33
2020-09-12 19:00:00 25.9 4 Noroeste 17 Norte 0 860.8 -- 30
2020-09-12 18:00:00 26.7 4 Norte 21 Norte 0 860.8 -- 30
2020-09-12 17:00:00 27.5 4 Noroeste 25 Noroeste 0 860.9 -- 30
2020-09-12 16:00:00 26.2 6 Norte 19 Noroeste 0 861.3 -- 30
2020-09-12 15:00:00 27.2 2 Oeste 17 Nordeste 0 861.2 -- 33
2020-09-12 14:00:00 25.2 3 Este 17 Sudoeste 0 861.5 -- 34
2020-09-12 13:00:00 24.2 6 Sur 15 Sur 0 861.7 -- 38
2020-09-12 12:00:00 22.6 6 Sur 12 Sur 0 861.5 -- 44
2020-09-12 11:00:00 21.5 7 Sur 13 Sur 0 861.1 -- 46
2020-09-12 10:00:00 21.2 0 Calma 5 Sudeste 0 860.3 -- 46
2020-09-12 09:00:00 14.2 3 Sudeste 6 Sur 0 860.2 -- 58
2020-09-12 08:00:00 13.1 0 Calma 8 Sudeste 0 859.4 -- 56
2020-09-12 07:00:00 13 3 Sur 5 Sudeste 0 859 -- 56
2020-09-12 06:00:00 13.5 3 Este 9 Sudeste 0 859 -- 52
2020-09-12 05:00:00 14.3 4 Sudeste 10 Sudeste 0 859.1 -- 50
2020-09-12 04:00:00 12.7 0 Calma 9 Sudeste 0 859 -- 50
2020-09-12 03:00:00 13.5 0 Calma 13 Sudeste 0 859.2 -- 47
2020-09-12 02:00:00 14.3 4 Sur 9 Sudeste 0 859.2 -- 44
2020-09-12 01:00:00 14.9 2 Norte 10 Norte 0 858.9 -- 44
2020-09-12 00:00:00 15.2 4 Norte 13 Norte 0 858.8 -- 41
2020-09-11 23:00:00 16.2 3 Norte 18 Norte 0 858.7 -- 44
2020-09-11 22:00:00 16 4 Norte 13 Norte 0 858.5 -- 42
2020-09-11 21:00:00 17 2 Norte 11 Noroeste 0 857.8 -- 42
2020-09-11 20:00:00 19.7 3 Norte 16 Noroeste 0 857.7 -- 41
2020-09-11 19:00:00 23.9 4 Noroeste 21 Norte 0 857.6 -- 37
2020-09-11 18:00:00 24.4 6 Noroeste 22 Norte 0 857.7 -- 37
2020-09-11 17:00:00 24.7 6 Noroeste 25 Norte 0 858.3 -- 37
2020-09-11 16:00:00 24 5 Noroeste 22 Norte 0 858.6 -- 37
2020-09-11 15:00:00 23.9 6 Norte 26 Noroeste 0 858.7 -- 39
2020-09-11 14:00:00 23.6 5 Norte 21 Norte 0 858.8 -- 40
2020-09-11 13:00:00 22 5 Norte 20 Norte 0 859.1 -- 42
2020-09-11 12:00:00 21.2 7 Norte 19 Norte 0 859 -- 46
2020-09-11 11:00:00 21.3 3 Norte 11 Norte 0 858.9 -- 49
2020-09-11 10:00:00 20.3 0 Calma 4 Este 0 858.5 -- 52
2020-09-11 09:00:00 12.4 0 Calma 7 Nordeste 0 858.5 -- 66
2020-09-11 08:00:00 12.2 2 Nordeste 6 Norte 0 857.9 -- 63
2020-09-11 07:00:00 12.7 0 Calma 11 Este 0 858 -- 62
2020-09-11 06:00:00 14.5 6 Sudeste 10 Este 0 858.1 -- 59
2020-09-11 05:00:00 12.3 2 Este 6 Este 0 858.7 -- 61
2020-09-11 04:00:00 12.9 2 Sudeste 9 Este 0 858.8 -- 58
2020-09-11 03:00:00 12.7 2 Este 5 Sudeste 0 859.1 -- 57
2020-09-11 02:00:00 13.5 2 Este 7 Sudeste 0 859.5 -- 58
2020-09-11 01:00:00 13.4 2 Sudeste 6 Sudeste 0 859.7 -- 57
2020-09-11 00:00:00 14.5 0 Calma 8 Norte 0 859.7 -- 54
2020-09-10 23:00:00 15 0 Calma 20 Norte 0 859.7 -- 52
2020-09-10 22:00:00 16.3 5 Norte 18 Norte 0 859.7 -- 49
2020-09-10 21:00:00 16.7 0 Calma 15 Noroeste 0 859.4 -- 48
2020-09-10 20:00:00 19.4 3 Norte 15 Norte 0 859.3 -- 42
2020-09-10 19:00:00 23.1 5 Noroeste 23 Noroeste 0 859.5 -- 38
2020-09-10 18:00:00 23 5 Norte 26 Oeste 0 859.7 -- 38
2020-09-10 17:00:00 24.5 6 Norte 24 Noroeste 0 860.3 -- 38
2020-09-10 16:00:00 23.7 6 Norte 24 Noroeste 0 860.5 -- 40
2020-09-10 15:00:00 22.3 6 Noroeste 19 Noroeste 0 861 -- 42
2020-09-10 14:00:00 22.5 5 Norte 20 Norte 0 861.1 -- 44
2020-09-10 13:00:00 21.7 6 Norte 18 Noroeste 0 861.9 -- 45
2020-09-10 12:00:00 20.4 4 Norte 13 Norte 0 862.1 -- 48
2020-09-10 11:00:00 19.1 3 Sudeste 10 Sur 0 862.1 -- 52
2020-09-10 10:00:00 16.6 5 Sur 10 Sudeste 0 861.6 -- 59
2020-09-10 09:00:00 12.3 6 Sudeste 9 Sudeste 0 861.2 -- 68
2020-09-10 08:00:00 10.9 4 Sur 11 Sudeste 0 860.9 -- 69
2020-09-10 07:00:00 10.9 0 Calma 7 Sudeste 0 861 -- 68
2020-09-10 06:00:00 11 0 Calma 6 Nordeste 0 860.8 -- 68
2020-09-10 05:00:00 11.1 0 Calma 6 Norte 0 861.3 -- 66
2020-09-10 04:00:00 11.5 0 Calma 6 Sudeste 0 861.5 -- 63
2020-09-10 03:00:00 12.2 0 Calma 10 Sudeste 0 861.8 -- 61
2020-09-10 02:00:00 12.8 5 Sudeste 9 Sur 0 862 -- 58
2020-09-10 01:00:00 13.2 4 Norte 11 Nordeste 0 861.9 -- 58
2020-09-10 00:00:00 13.7 4 Norte 13 Nordeste 0 862.4 -- 56
2020-09-09 23:00:00 14.5 2 Noroeste 14 Norte 0 862.2 -- 52
2020-09-09 22:00:00 15.1 2 Norte 8 Noroeste 0 862.4 -- 46
2020-09-09 21:00:00 16.1 0 Calma 8 Noroeste 0 861.5 -- 42
2020-09-09 20:00:00 19.7 0 Calma 14 Noroeste 0 861.5 -- 37
2020-09-09 19:00:00 22.9 4 Norte 20 Norte 0 861.2 -- 34
2020-09-09 18:00:00 23.3 4 Norte 27 Noroeste 0 861.6 -- 34
2020-09-09 17:00:00 23.6 6 Noroeste 23 Noroeste 0 861.8 -- 33
2020-09-09 16:00:00 23.4 6 Norte 22 Norte 0 862 -- 35
2020-09-09 15:00:00 23.1 5 Noroeste 20 Oeste 0 862.5 -- 35
2020-09-09 14:00:00 22.3 0 Calma 15 Este 0 862.7 -- 38
2020-09-09 13:00:00 20 5 Norte 18 Noroeste 0 862.9 -- 40
2020-09-09 12:00:00 19 5 Norte 13 Noroeste 0 862.9 -- 42
2020-09-09 11:00:00 17.3 5 Norte 14 Norte 0 863.2 -- 48
2020-09-09 10:00:00 15.5 4 Norte 10 Nordeste 0 863 -- 56
2020-09-09 09:00:00 9.4 3 Norte 6 Sur 0 862.6 -- 73
2020-09-09 08:00:00 8.9 4 Sur 8 Sur 0 862.6 -- 73
2020-09-09 07:00:00 9 5 Sur 14 Sur 0 862 -- 68
2020-09-09 06:00:00 10.6 9 Sudeste 14 Sudeste 0 862.1 -- 62
2020-09-09 05:00:00 10.5 6 Sur 13 Sudeste 0 862.4 -- 61
2020-09-09 04:00:00 10.7 7 Sur 13 Sudeste 0 862.4 -- 60
2020-09-09 03:00:00 11.2 6 Sur 11 Sur 0 862.4 -- 57
2020-09-09 02:00:00 13.6 4 Sudeste 21 Este 0 862.5 -- 49
2020-09-09 01:00:00 14.5 12 Este 28 Este 0 862.9 -- 49
2020-09-09 00:00:00 14.4 6 Sudeste 17 Este 0 863.1 -- 48
2020-09-08 23:00:00 14.3 5 Sudeste 19 Sudeste 0 863.1 -- 45
2020-09-08 22:00:00 14.4 6 Sudeste 13 Sudeste 0 862.6 -- 42
2020-09-08 21:00:00 14.7 6 Sur 15 Sur 0 862.1 -- 41
2020-09-08 20:00:00 17.4 10 Sur 24 Sur 0 861.7 -- 36
2020-09-08 19:00:00 19.6 13 Sur 27 Sur 0 861.9 -- 34
2020-09-08 18:00:00 20.1 13 Sur 28 Sur 0 861.9 -- 33
2020-09-08 17:00:00 20.5 13 Sudoeste 34 Sur 0 861.9 -- 34
2020-09-08 16:00:00 19.9 16 Sur 29 Sur 0 862.3 -- 37
2020-09-08 15:00:00 19.5 12 Sur 33 Sudoeste 0 862.4 -- 40
2020-09-08 14:00:00 18.4 13 Sur 31 Sur 0 862.5 -- 42
2020-09-08 13:00:00 16.1 16 Sur 30 Sur 0 862.7 -- 48
2020-09-08 12:00:00 14.5 17 Sur 30 Sur 0 862.8 -- 51
2020-09-08 11:00:00 12.5 15 Sur 26 Sur 0 862.8 -- 55
2020-09-08 10:00:00 10.5 15 Sur 23 Sur 0 862.8 -- 57
2020-09-08 09:00:00 7 13 Sur 19 Sur 0 862.8 -- 66
2020-09-08 08:00:00 6.6 10 Sur 20 Sudoeste 0 862.2 -- 65
2020-09-08 07:00:00 5.7 11 Sur 18 Sudeste 0 861.9 -- 64
2020-09-08 06:00:00 6.1 10 Sur 19 Sudeste 0 861.7 -- 56
2020-09-08 05:00:00 7.2 7 Sur 12 Sudeste 0 861.4 -- 40
2020-09-08 04:00:00 7.2 3 Sudeste 14 Norte 0 861.5 -- 41
2020-09-08 03:00:00 6.7 5 Norte 15 Norte 0 861.6 -- 53
2020-09-08 02:00:00 7.4 3 Nordeste 8 Norte 0 861.8 -- 57
2020-09-08 01:00:00 8.3 3 Norte 10 Nordeste 0 861.9 -- 57
2020-09-08 00:00:00 8.9 2 Nordeste 6 Norte 0 861.8 -- 56
2020-09-07 23:00:00 9.3 4 Norte 11 Este 0 862.1 -- 59
2020-09-07 22:00:00 10.7 0 Calma 13 Norte 0 861.9 -- 54
2020-09-07 21:00:00 12.7 3 Norte 23 Norte 0 861.3 -- 48
2020-09-07 20:00:00 15.7 7 Norte 28 Noroeste 0 860.8 -- 40
2020-09-07 19:00:00 19.5 5 Noroeste 21 Norte 0 860.6 -- 33
2020-09-07 18:00:00 20.9 6 Norte 26 Nordeste 0 860.6 -- 30
2020-09-07 17:00:00 19.6 10 Norte 29 Norte 0 860.3 -- 31
2020-09-07 16:00:00 18.8 7 Norte 26 Norte 0 860.7 -- 34
2020-09-07 15:00:00 18.7 7 Noroeste 26 Noroeste 0 860.6 -- 41
2020-09-07 14:00:00 17 10 Norte 30 Norte 0 860.9 -- 45
2020-09-07 13:00:00 15.2 10 Norte 29 Norte 0 860.7 -- 52
2020-09-07 12:00:00 12.7 10 Norte 28 Noroeste 0 860.7 -- 60
2020-09-07 11:00:00 10.6 11 Norte 33 Norte 0 860.3 -- 74
2020-09-07 10:00:00 8.1 10 Norte 28 Norte 0 859.6 -- 91
2020-09-07 09:00:00 5.6 9 Norte 24 Noroeste 0 859.6 -- 99
2020-09-07 08:00:00 4.9 8 Norte 18 Norte 0 859.2 -- 99
2020-09-07 07:00:00 5.2 4 Norte 15 Norte 0 859.1 -- 98
2020-09-07 06:00:00 5.9 6 Norte 13 Nordeste 0 858.8 -- 94
2020-09-07 05:00:00 6.6 6 Norte 15 Norte 0 858.8 -- 93
2020-09-07 04:00:00 7.6 6 Norte 12 Nordeste 0 858.8 -- 87
2020-09-07 03:00:00 8.8 6 Norte 13 Norte 0 859.3 -- 79
2020-09-07 02:00:00 10 5 Norte 11 Norte 0 859.4 -- 73
2020-09-07 01:00:00 10 4 Norte 15 Nordeste 0 859.8 -- 75
2020-09-07 00:00:00 10.7 4 Norte 13 Norte 0 859.6 -- 70
2020-09-06 23:00:00 11.9 6 Norte 12 Norte 0 859.7 -- 58
2020-09-06 22:00:00 14.1 5 Norte 17 Norte 0 859.7 -- 67
2020-09-06 21:00:00 16 5 Norte 18 Noroeste 0 859 -- 59
2020-09-06 20:00:00 19 8 Norte 22 Noroeste 0 858.8 -- 49
2020-09-06 19:00:00 23 6 Noroeste 29 Noroeste 0 859 -- 44
2020-09-06 18:00:00 24.5 6 Norte 30 Noroeste 0 858.9 -- 42
2020-09-06 17:00:00 25.6 6 Noroeste 24 Norte 0 859.3 -- 41
2020-09-06 16:00:00 25.5 7 Noroeste 31 Norte 0 859.4 -- 42
2020-09-06 15:00:00 25.1 6 Noroeste 18 Noroeste 0 859.7 -- 42
2020-09-06 14:00:00 24.7 3 Norte 23 Oeste 0 860 -- 44
2020-09-06 13:00:00 24 3 Sudoeste 16 Sur 0 860.3 -- 42
2020-09-06 12:00:00 22.3 8 Sur 16 Sur 0 860.3 -- 42
2020-09-06 11:00:00 20.4 10 Sur 25 Sudoeste 0 860.2 -- 48
2020-09-06 10:00:00 19.3 7 Sur 14 Sur 0 860 -- 58
2020-09-06 09:00:00 15.5 6 Sur 13 Sur 0 860.1 -- 70
2020-09-06 08:00:00 14.4 7 Sur 16 Sur 0 859.8 -- 73
2020-09-06 07:00:00 14.5 9 Sur 14 Sur 0 859.7 -- 72
2020-09-06 06:00:00 14.8 6 Sur 15 Sur 0 859.9 -- 70
2020-09-06 05:00:00 15.4 9 Sur 18 Sur 0 860.1 -- 69
2020-09-06 04:00:00 15.9 9 Sur 21 Sudeste 0 860.3 -- 68
2020-09-06 03:00:00 17 8 Sudeste 24 Sur 0 860.5 -- 63
2020-09-06 02:00:00 17.7 8 Sur 24 Este 0 860.6 -- 55
2020-09-06 01:00:00 19.7 8 Este 20 Este 0 860.5 -- 50
2020-09-06 00:00:00 20 8 Este 29 Este 0 860.6 -- 50
2020-09-05 23:00:00 19.9 14 Este 30 Este 0 860.4 -- 48
2020-09-05 22:00:00 18.8 2 Norte 21 Norte 0 860.4 -- 42
2020-09-05 21:00:00 21.5 6 Norte 26 Noroeste 0 860.4 -- 39
2020-09-05 20:00:00 24.5 0 Calma 10 Este 0 859.9 -- 38
2020-09-05 19:00:00 26.1 5 Este 17 Oeste 0 860.1 -- 35
2020-09-05 18:00:00 25.6 0 Calma 18 Norte 0 860.6 -- 36
2020-09-05 17:00:00 27.9 3 Sudoeste 13 Noroeste 0 860.8 -- 35
2020-09-05 16:00:00 27.4 3 Norte 15 Sudoeste 0 861.6 -- 34
2020-09-05 15:00:00 25.6 3 Norte 17 Este 0 862.3 -- 37
2020-09-05 14:00:00 25 4 Norte 19 Norte 0 862.7 -- 37
2020-09-05 13:00:00 25.4 2 Norte 13 Norte 0 863.1 -- 38
2020-09-05 12:00:00 23.5 3 Norte 14 Norte 0 863.1 -- 42
2020-09-05 11:00:00 22.2 6 Norte 16 Norte 0 862.8 -- 46
2020-09-05 10:00:00 21.8 2 Norte 8 Norte 0 862.3 -- 49
2020-09-05 09:00:00 15.3 0 Calma 5 Nordeste 0 862.3 -- 61
2020-09-05 08:00:00 14.4 0 Calma 5 Norte 0 862 -- 60
2020-09-05 07:00:00 12.9 0 Calma 6 Sudeste 0 862 -- 63
2020-09-05 06:00:00 13.5 3 Sur 9 Sur 0 862.1 -- 62
2020-09-05 05:00:00 16 8 Sur 17 Este 0 862.6 -- 55
2020-09-05 04:00:00 16.5 7 Sudeste 14 Este 0 863.1 -- 52
2020-09-05 03:00:00 15.9 6 Sur 9 Sudeste 0 863.2 -- 53
2020-09-05 02:00:00 15.9 0 Calma 5 Nordeste 0 863.4 -- 52
2020-09-05 01:00:00 16.6 0 Calma 8 Este 0 863.6 -- 49
2020-09-05 00:00:00 17.2 3 Sudeste 12 Sudeste 0 863.7 -- 48
2020-09-04 23:00:00 19.5 8 Sudeste 17 Este 0 863.8 -- 44
2020-09-04 22:00:00 19.3 6 Sudeste 14 Sudeste 0 864 -- 42
2020-09-04 21:00:00 20 6 Sudeste 17 Sudoeste 0 863.7 -- 42
2020-09-04 20:00:00 23.7 9 Sur 18 Sur 0 863.4 -- 38
2020-09-04 19:00:00 25.6 10 Sur 22 Sur 0 863.5 -- 36
2020-09-04 18:00:00 25.9 12 Sur 23 Sur 0 863.6 -- 35
2020-09-04 17:00:00 27 8 Sur 21 Sur 0 863.9 -- 36
2020-09-04 16:00:00 26 11 Sur 26 Sur 0 864.5 -- 38
2020-09-04 15:00:00 25.2 13 Sur 27 Sur 0 865 -- 38
2020-09-04 14:00:00 24.4 12 Sur 23 Sur 0 865.4 -- 41
2020-09-04 13:00:00 23.5 11 Sur 22 Sur 0 865.8 -- 48
2020-09-04 12:00:00 21.6 14 Sur 22 Sur 0 865.8 -- 56
2020-09-04 11:00:00 19.8 11 Sur 18 Sur 0 865.5 -- 61
2020-09-04 10:00:00 18.3 8 Sur 14 Sur 0 865.3 -- 64
2020-09-04 09:00:00 15.1 5 Sur 17 Sudeste 0 865.3 -- 74
2020-09-04 08:00:00 14.2 8 Sur 14 Sur 0 864.6 -- 72
2020-09-04 07:00:00 13.1 8 Sur 13 Sudeste 0 864.4 -- 71
2020-09-04 06:00:00 14.3 7 Sudeste 14 Oeste 0 864.2 -- 63
2020-09-04 05:00:00 13.2 4 Sur 13 Sur 0 864.2 -- 55
2020-09-04 04:00:00 12.8 6 Sur 28 Sur 0 864.5 -- 49
2020-09-04 03:00:00 16.7 6 Sudeste 13 Sudeste 0 864.3 -- 40
2020-09-04 02:00:00 16.1 4 Sudoeste 12 Este 0 864.7 -- 38
2020-09-04 01:00:00 16.5 5 Este 9 Este 0 864.5 -- 38
2020-09-04 00:00:00 17.7 6 Este 11 Este 0 864.6 -- 36
2020-09-03 23:00:00 17.5 4 Sudeste 13 Sudeste 0 864.3 -- 38
2020-09-03 22:00:00 17.9 5 Sudeste 13 Sudeste 0 864.2 -- 38
2020-09-03 21:00:00 18.9 5 Sudeste 14 Sudoeste 0 863.6 -- 38
2020-09-03 20:00:00 24.3 5 Sur 13 Sur 0 863.2 -- 29
2020-09-03 19:00:00 26.8 3 Noroeste 11 Oeste 0 862.9 -- 25
2020-09-03 18:00:00 26.8 3 Norte 15 Noroeste 0 862.7 -- 25
2020-09-03 17:00:00 27.1 3 Noroeste 20 Norte 0 863.1 -- 25
2020-09-03 16:00:00 26 5 Norte 18 Norte 0 863.2 -- 27
2020-09-03 15:00:00 24.5 5 Norte 17 Noroeste 0 863.2 -- 28
2020-09-03 14:00:00 24.1 3 Norte 16 Noroeste 0 863.5 -- 31
2020-09-03 13:00:00 22.7 5 Norte 13 Noroeste 0 863.4 -- 34
2020-09-03 12:00:00 21.4 5 Sur 13 Sudeste 0 863.4 -- 40
2020-09-03 11:00:00 20.4 6 Sur 11 Sudeste 0 863 -- 42
2020-09-03 10:00:00 19 4 Sur 8 Sudeste 0 862.3 -- 47
2020-09-03 09:00:00 14.4 6 Sudeste 9 Sudeste 0 862 -- 55
2020-09-03 08:00:00 11.1 6 Sur 7 Sur 0 861.6 -- 56
2020-09-03 07:00:00 11.2 6 Sudeste 8 Sudeste 0 860.9 -- 54
2020-09-03 06:00:00 11.1 0 Calma 6 Norte 0 860.9 -- 52
2020-09-03 05:00:00 11.3 2 Nordeste 6 Este 0 860.9 -- 55
2020-09-03 04:00:00 11.9 0 Calma 6 Nordeste 0 861 -- 56
2020-09-03 03:00:00 11.8 2 Norte 5 Nordeste 0 860.9 -- 57
2020-09-03 02:00:00 11.6 0 Calma 10 Nordeste 0 861 -- 58
2020-09-03 01:00:00 11.4 5 Norte 13 Nordeste 0 860.9 -- 57
2020-09-03 00:00:00 12.1 5 Norte 12 Norte 0 860.8 -- 53
2020-09-02 23:00:00 12.5 6 Norte 26 Norte 0 860.8 -- 51
2020-09-02 22:00:00 14.1 5 Norte 14 Norte 0 860.4 -- 48
2020-09-02 21:00:00 16 4 Norte 13 Norte 0 859.9 -- 42
2020-09-02 20:00:00 19.9 4 Norte 20 Norte 0 859.4 -- 36
2020-09-02 19:00:00 23 4 Noroeste 18 Noroeste 0 859 -- 34
2020-09-02 18:00:00 22.9 5 Noroeste 23 Noroeste 0 858.9 -- 34
2020-09-02 17:00:00 23.2 5 Norte 26 Norte 0 858.6 -- 35
2020-09-02 16:00:00 22.2 5 Noroeste 21 Noroeste 0 858.6 -- 37
2020-09-02 15:00:00 21.9 4 Noroeste 25 Norte 0 858.9 -- 40
2020-09-02 14:00:00 21.3 5 Norte 27 Norte 0 858.9 -- 41
2020-09-02 13:00:00 19.4 5 Norte 17 Norte 0 858.9 -- 42
2020-09-02 12:00:00 18.5 4 Norte 15 Norte 0 858.9 -- 44
2020-09-02 11:00:00 16.9 5 Norte 14 Nordeste 0 858.3 -- 46
2020-09-02 10:00:00 16.8 5 Sur 9 Sur 0 857.6 -- 49
2020-09-02 09:00:00 11.9 3 Sur 6 Sudeste 0 857.4 -- 60
2020-09-02 08:00:00 9.4 0 Calma 6 Este 0 857.1 -- 61
2020-09-02 07:00:00 9 0 Calma 6 Este 0 856.8 -- 60
2020-09-02 06:00:00 9.1 2 Sur 8 Sudeste 0 856.6 -- 58
2020-09-02 05:00:00 10.3 5 Sudeste 10 Sudeste 0 856.4 -- 54
2020-09-02 04:00:00 9.7 4 Sudeste 9 Sudeste 0 856.3 -- 53
2020-09-02 03:00:00 11.5 6 Sudeste 11 Sudeste 0 856.2 -- 49
2020-09-02 02:00:00 10.7 4 Sudeste 6 Sudeste 0 856.4 -- 49
2020-09-02 01:00:00 11 0 Calma 7 Este 0 856.1 -- 47
2020-09-02 00:00:00 12.3 2 Este 12 Sudoeste 0 856 -- 44
2020-09-01 23:00:00 12.9 3 Noroeste 13 Norte 0 855.7 -- 41
2020-09-01 22:00:00 14.6 4 Norte 11 Norte 0 855.7 -- 40
2020-09-01 21:00:00 15.9 4 Norte 14 Noroeste 0 855.1 -- 38
2020-09-01 20:00:00 18.5 6 Norte 18 Noroeste 0 854.9 -- 34
2020-09-01 19:00:00 19.8 5 Norte 18 Norte 0 854.8 -- 31
2020-09-01 18:00:00 22.6 4 Norte 18 Noroeste 0 854.7 -- 28
2020-09-01 17:00:00 21.3 4 Norte 17 Oeste 0 855 -- 30
2020-09-01 16:00:00 21 3 Norte 21 Norte 0 855 -- 33
2020-09-01 15:00:00 21.3 7 Norte 22 Norte 0 855.5 -- 31
2020-09-01 14:00:00 20.5 4 Norte 16 Norte 0 855.6 -- 35
2020-09-01 13:00:00 17.2 6 Norte 16 Norte 0 855.9 -- 39
2020-09-01 12:00:00 17.3 5 Norte 11 Norte 0 856.3 -- 40
2020-09-01 11:00:00 16.3 2 Norte 12 Norte 0 856.4 -- 42
2020-09-01 10:00:00 14.5 2 Norte 9 Norte 0 856.5 -- 47
2020-09-01 09:00:00 12.1 0 Calma 6 Norte 0 856.3 -- 48
2020-09-01 08:00:00 11.7 3 Nordeste 14 Este 0 856.3 -- 46
2020-09-01 07:00:00 11.4 0 Calma 15 Este 0 856.5 -- 47
2020-09-01 06:00:00 10.9 4 Norte 7 Norte 0 856.8 -- 48
2020-09-01 05:00:00 11 0 Calma 3 Nordeste 0 857 -- 47
2020-09-01 04:00:00 11.2 0 Calma 6 Sur 0 857 -- 46
2020-09-01 03:00:00 11.1 4 Sur 6 Sur 0 857.6 -- 46
2020-09-01 02:00:00 10.1 0 Calma 7 Nordeste 0 857.9 -- 48
2020-09-01 01:00:00 9.5 0 Calma 6 Nordeste 0 858 -- 48
2020-09-01 00:00:00 10.5 0 Calma 6 Norte 0 858.2 -- 46
2020-08-31 23:00:00 10.3 0 Calma 8 Este 0 858.7 -- 45
2020-08-31 22:00:00 11.1 0 Calma 9 Noroeste 0 858.5 -- 41
2020-08-31 21:00:00 13.6 5 Noroeste 17 Noroeste 0 858.1 -- 37
2020-08-31 20:00:00 18.2 5 Noroeste 15 Norte 0 858 -- 31
2020-08-31 19:00:00 18.3 5 Oeste 21 Oeste 0 858.1 -- 33
2020-08-31 18:00:00 20.8 5 Noroeste 20 Oeste 0 858.3 -- 30
2020-08-31 17:00:00 20.7 4 Norte 19 Noroeste 0 858.7 -- 32
2020-08-31 16:00:00 18.9 5 Noroeste 22 Oeste 0 859.2 -- 34
2020-08-31 15:00:00 19.3 6 Norte 22 Norte 0 859.3 -- 34
2020-08-31 14:00:00 18.8 4 Norte 19 Noroeste 0 859.2 -- 35
2020-08-31 13:00:00 17.3 3 Nordeste 14 Norte 0 859.5 -- 38
2020-08-31 12:00:00 15.2 3 Noroeste 11 Norte 0 859.9 -- 42
2020-08-31 11:00:00 14.2 3 Noroeste 16 Norte 0 859.7 -- 45
2020-08-31 10:00:00 11.4 6 Norte 15 Norte 0 859.4 -- 55
2020-08-31 09:00:00 7.5 3 Sudeste 10 Norte 0 859.3 -- 70
2020-08-31 08:00:00 4.8 4 Norte 13 Nordeste 0 859 -- 80
2020-08-31 07:00:00 4.1 0 Calma 5 Noroeste 0 858.8 -- 81
2020-08-31 06:00:00 4 0 Calma 7 Norte 0 858.7 -- 77
2020-08-31 05:00:00 3.7 0 Calma 5 Nordeste 0 858.8 -- 71
2020-08-31 04:00:00 4.3 0 Calma 8 Noroeste 0 859.1 -- 66
2020-08-31 03:00:00 4.6 3 Norte 6 Noroeste 0 859.3 -- 67
2020-08-31 02:00:00 4.7 0 Calma 6 Noroeste 0 859.2 -- 70
2020-08-31 01:00:00 5.3 0 Calma 9 Norte 0 859.1 -- 71
2020-08-31 00:00:00 5.5 5 Norte 11 Nordeste 0 858.8 -- 70
2020-08-30 23:00:00 6.8 0 Calma 15 Norte 0 858.5 -- 65
2020-08-30 22:00:00 8.2 0 Calma 13 Norte 0 857.9 -- 59
2020-08-30 21:00:00 9.5 4 Norte 23 Norte 0 857.1 -- 51
2020-08-30 20:00:00 13.1 4 Norte 18 Norte 0 856.4 -- 44
2020-08-30 19:00:00 11.4 5 Norte 24 Noroeste 0 856.5 -- 46
2020-08-30 18:00:00 12.8 6 Norte 25 Noroeste 0 856.5 -- 46
2020-08-30 17:00:00 15.3 6 Norte 28 Noroeste 0 856 -- 42
2020-08-30 16:00:00 14.5 8 Norte 25 Noroeste 0 856.2 -- 45
2020-08-30 15:00:00 13.8 9 Norte 28 Norte 0 856.1 -- 49
2020-08-30 14:00:00 13.1 8 Norte 27 Norte 0 856.5 -- 55
2020-08-30 13:00:00 13 8 Norte 36 Nordeste 0 855.7 -- 56
2020-08-30 12:00:00 10.3 13 Norte 32 Noroeste 0 855.6 -- 68
2020-08-30 11:00:00 7.3 10 Norte 36 Norte 0 855.3 -- 83
2020-08-30 10:00:00 6.4 12 Norte 34 Norte 0 854.8 -- 92
2020-08-30 09:00:00 5.3 9 Norte 28 Norte 0 854.5 -- 98
2020-08-30 08:00:00 4.9 8 Norte 28 Noroeste 0 853.6 -- 99
2020-08-30 07:00:00 4.1 10 Norte 26 Noroeste 0 853.5 -- 99
2020-08-30 06:00:00 4.4 7 Norte 29 Norte 0 853.5 -- 99
2020-08-30 05:00:00 4.4 11 Norte 35 Noroeste 0 853.4 -- 98
2020-08-30 04:00:00 4.3 10 Norte 37 Norte 0 853.2 -- 98
2020-08-30 03:00:00 4.2 12 Norte 36 Noroeste 0 853.1 -- 98
2020-08-30 02:00:00 4.1 15 Norte 39 Norte 0 853.4 -- 96
2020-08-30 01:00:00 4.8 13 Norte 36 Norte 0 853.6 -- 91
2020-08-30 00:00:00 6.1 9 Norte 34 Norte 0 853.3 -- 89
2020-08-29 23:00:00 7.1 9 Norte 29 Norte 0 853.1 -- 90
2020-08-29 22:00:00 8.5 8 Norte 31 Norte 0 852.4 -- 82
2020-08-29 21:00:00 9.7 9 Norte 35 Noroeste 0 851.7 -- 76
2020-08-29 20:00:00 10.2 7 Norte 29 Nordeste 0 851.2 -- 70
2020-08-29 19:00:00 11.3 6 Norte 36 Noroeste 0 850.9 -- 62
2020-08-29 18:00:00 13.1 11 Norte 44 Norte 0 850.5 -- 63
2020-08-29 17:00:00 14.6 8 Norte 36 Norte 0 850.1 -- 52
2020-08-29 16:00:00 15.7 14 Norte 34 Noroeste 0 850.1 -- 49
2020-08-29 15:00:00 14 12 Norte 34 Norte 0 850.3 -- 54
2020-08-29 14:00:00 12.7 11 Norte 31 Norte 0 850.2 -- 55
2020-08-29 13:00:00 11.2 7 Norte 25 Norte 0 850.4 -- 61
2020-08-29 12:00:00 10.2 6 Norte 28 Nordeste 0 850.4 -- 71
2020-08-29 11:00:00 8.6 7 Noroeste 29 Noroeste 0 850.1 -- 80
2020-08-29 10:00:00 7.1 7 Norte 25 Norte 0 850 -- 88
2020-08-29 09:00:00 6 9 Norte 27 Norte 0 849.4 -- 88
2020-08-29 08:00:00 5 9 Norte 26 Noroeste 0 849.4 -- 91
2020-08-29 07:00:00 4.9 8 Norte 29 Noroeste 0 849.2 -- 86
2020-08-29 06:00:00 5.6 10 Norte 29 Nordeste 0 848.7 -- 91
2020-08-29 05:00:00 6.5 10 Norte 29 Noroeste 0 848.9 -- 98
2020-08-29 04:00:00 7.7 7 Norte 27 Norte 0 849.3 -- 95
2020-08-29 03:00:00 8.5 9 Norte 34 Noroeste 0 849.7 -- 97
2020-08-29 02:00:00 9.1 9 Norte 25 Norte 0 850.1 -- 97
2020-08-29 01:00:00 10.3 8 Norte 28 Noroeste 0 850.3 -- 92
2020-08-29 00:00:00 12.2 7 Norte 21 Norte 0 850.2 -- 78
2020-08-28 23:00:00 14.3 3 Noroeste 16 Norte 0 850.5 -- 42
2020-08-28 22:00:00 15.6 4 Norte 16 Norte 0 850.6 -- 38
2020-08-28 21:00:00 16.6 3 Norte 19 Noroeste 0 850.3 -- 35
2020-08-28 20:00:00 20 9 Noroeste 36 Norte 0 850 -- 28
2020-08-28 19:00:00 21.7 11 Noroeste 32 Noroeste 0 850.4 -- 31
2020-08-28 18:00:00 22.8 10 Noroeste 33 Noroeste 0 850.7 -- 40
2020-08-28 17:00:00 23.6 8 Noroeste 32 Oeste 0 851.2 -- 42
2020-08-28 16:00:00 22.3 8 Noroeste 30 Oeste 0 851.9 -- 49
2020-08-28 15:00:00 22.5 7 Noroeste 26 Norte 0 852.6 -- 52
2020-08-28 14:00:00 20.8 6 Norte 27 Norte 0 853.1 -- 60
2020-08-28 13:00:00 20.9 7 Norte 20 Norte 0 853.7 -- 65
2020-08-28 12:00:00 19.4 4 Norte 24 Norte 0 854.2 -- 67
2020-08-28 11:00:00 16.8 9 Norte 26 Norte 0 854.1 -- 74
2020-08-28 10:00:00 15.7 5 Norte 23 Norte 0 854 -- 79
2020-08-28 09:00:00 15.7 3 Norte 31 Este 0 854.2 -- 71
2020-08-28 08:00:00 14.4 4 Norte 16 Norte 0 854.6 -- 83
2020-08-28 07:00:00 14.7 4 Norte 26 Norte 0 855.1 -- 82
2020-08-28 06:00:00 15.8 4 Nordeste 24 Este 0 855.1 -- 74
2020-08-28 05:00:00 16.5 4 Norte 19 Nordeste 0 855.7 -- 56
2020-08-28 04:00:00 16.9 4 Nordeste 18 Este 0 856.1 -- 54
2020-08-28 03:00:00 18.1 5 Nordeste 21 Norte 0 856.8 -- 49
2020-08-28 02:00:00 17.8 5 Norte 24 Oeste 0 857.6 -- 48
2020-08-28 01:00:00 17.8 3 Noroeste 15 Oeste 0 858 -- 47
2020-08-28 00:00:00 18.1 4 Norte 11 Norte 0 858.1 -- 46
2020-08-27 23:00:00 18.9 4 Norte 9 Norte 0 858.2 -- 44
2020-08-27 22:00:00 20.1 2 Norte 9 Nordeste 0 858.8 -- 42
2020-08-27 21:00:00 22 4 Norte 13 Norte 0 858.6 -- 38
2020-08-27 20:00:00 26 5 Noroeste 20 Norte 0 858.8 -- 33
2020-08-27 19:00:00 28 7 Oeste 18 Noroeste 0 859.1 -- 31
2020-08-27 18:00:00 28.4 8 Noroeste 26 Noroeste 0 860.2 -- 29
2020-08-27 17:00:00 28.8 5 Noroeste 23 Noroeste 0 860.5 -- 29
2020-08-27 16:00:00 28.9 7 Noroeste 22 Noroeste 0 861 -- 33
2020-08-27 15:00:00 28.7 3 Sudoeste 27 Sudoeste 0 861.8 -- 37
2020-08-27 14:00:00 26.8 7 Noroeste 27 Norte 0 861.9 -- 40
2020-08-27 13:00:00 26 7 Noroeste 24 Norte 0 862.5 -- 41
2020-08-27 12:00:00 25.9 3 Norte 20 Norte 0 862.4 -- 42
2020-08-27 11:00:00 24.9 4 Oeste 17 Oeste 0 862 -- 42
2020-08-27 10:00:00 22.7 0 Calma 9 Norte 0 861.6 -- 45
2020-08-27 09:00:00 18.8 3 Norte 9 Nordeste 0 861.7 -- 49
2020-08-27 08:00:00 16.5 0 Calma 10 Nordeste 0 861.6 -- 49
2020-08-27 07:00:00 16.3 3 Norte 9 Norte 0 861.7 -- 50
2020-08-27 06:00:00 16.9 4 Norte 8 Norte 0 861.4 -- 49
2020-08-27 05:00:00 16.7 5 Norte 9 Norte 0 861.8 -- 49
2020-08-27 04:00:00 17.5 5 Norte 9 Norte 0 861.6 -- 47
2020-08-27 03:00:00 16.8 6 Norte 11 Norte 0 862 -- 48
2020-08-27 02:00:00 17.7 4 Norte 10 Norte 0 862.6 -- 45
2020-08-27 01:00:00 18.3 4 Norte 8 Noroeste 0 862.9 -- 45
2020-08-27 00:00:00 19.2 2 Norte 7 Este 0 862.9 -- 42
2020-08-26 23:00:00 19.7 0 Calma 6 Norte 0 863 -- 42
2020-08-26 22:00:00 20.8 3 Norte 7 Norte 0 862.7 -- 40
2020-08-26 21:00:00 22.8 3 Norte 13 Norte 0 862.2 -- 37
2020-08-26 20:00:00 27.2 3 Noroeste 15 Noroeste 0 861.8 -- 33
2020-08-26 19:00:00 29.2 4 Norte 18 Norte 0 862 -- 31
2020-08-26 18:00:00 29.4 4 Norte 18 Oeste 0 862.1 -- 30
2020-08-26 17:00:00 30.6 5 Norte 20 Oeste 0 862.4 -- 30
2020-08-26 16:00:00 30 0 Calma 29 Norte 0 862.5 -- 30
2020-08-26 15:00:00 29.8 3 Noroeste 27 Norte 0 862.8 -- 30
2020-08-26 14:00:00 28.8 9 Oeste 24 Noroeste 0 862.7 -- 31
2020-08-26 13:00:00 27.6 6 Noroeste 26 Noroeste 0 862.7 -- 32
2020-08-26 12:00:00 25.4 7 Norte 77 Nordeste 3.3 862.9 -- 34
2020-08-26 11:00:00 -- 0 Calma -- -- 0 -- -- 0
2020-08-26 10:00:00 -- 0 Calma -- -- 0 -- -- 0
2020-08-26 09:00:00 -- 0 Calma -- -- 0 -- -- 0
2020-08-26 08:00:00 -- 0 Calma -- -- 0 -- -- 0
2020-08-26 07:00:00 -- 0 Calma -- -- 0 -- -- 0
2020-08-26 06:00:00 -- 0 Calma -- -- 0 -- -- 0
2020-08-26 05:00:00 -- 0 Calma -- -- 0 -- -- 0
2020-08-26 04:00:00 -- 0 Calma -- -- 0 -- -- 0
2020-08-26 03:00:00 -- 0 Calma -- -- 0 -- -- 0
2020-08-26 02:00:00 -- 0 Calma -- -- 0 -- -- 0
2020-08-26 01:00:00 -- 0 Calma -- -- 0 -- -- 0
2020-08-26 00:00:00 -- 0 Calma -- -- 0 -- -- 0
2020-08-25 23:00:00 -- 0 Calma -- -- 0 -- -- 0
2020-08-25 22:00:00 -- 0 Calma -- -- 0 -- -- 0
2020-08-25 21:00:00 -- 0 Calma -- -- 0 -- -- 0
2020-08-25 20:00:00 -- 0 Calma -- -- 0 -- -- 0
2020-08-25 19:00:00 -- 0 Calma -- -- 0 -- -- 0
2020-08-25 18:00:00 -- 0 Calma -- -- 0 -- -- 0
2020-08-25 17:00:00 -- 0 Calma -- -- 0 -- -- 0
2020-08-25 16:00:00 -- 0 Calma -- -- 0 -- -- 0
2020-08-25 15:00:00 -- 0 Calma -- -- 0 -- -- 0
2020-08-25 14:00:00 -- 0 Calma -- -- 0 -- -- 0
2020-08-25 13:00:00 -- 0 Calma -- -- 0 -- -- 0
2020-08-25 12:00:00 -- 0 Calma -- -- 0 -- -- 0
2020-08-25 11:00:00 -- 0 Calma -- -- 0 -- -- 0
2020-08-25 10:00:00 -- 0 Calma -- -- 0 -- -- 0
2020-08-25 09:00:00 -- 0 Calma -- -- 0 -- -- 0
2020-08-25 08:00:00 -- 0 Calma -- -- 0 -- -- 0
2020-08-25 07:00:00 -- 0 Calma -- -- 0 -- -- 0
2020-08-25 06:00:00 -- 0 Calma -- -- 0 -- -- 0
2020-08-25 05:00:00 -- 0 Calma -- -- 0 -- -- 0
2020-08-25 04:00:00 -- 0 Calma -- -- 0 -- -- 0
2020-08-25 03:00:00 -- 0 Calma -- -- 0 -- -- 0
2020-08-25 02:00:00 -- 0 Calma -- -- 0 -- -- 0
2020-08-25 01:00:00 -- 0 Calma -- -- 0 -- -- 0
2020-08-25 00:00:00 -- 0 Calma -- -- 0 -- -- 0
2020-08-24 23:00:00 -- 0 Calma -- -- 0 -- -- 0
2020-08-24 22:00:00 -- 0 Calma -- -- 0 -- -- 0
2020-08-24 21:00:00 -- 0 Calma -- -- 0 -- -- 0
2020-08-24 20:00:00 -- 0 Calma -- -- 0 -- -- 0
2020-08-24 19:00:00 -- 0 Calma -- -- 0 -- -- 0
2020-08-24 18:00:00 -- 0 Calma -- -- 0 -- -- 0
2020-08-24 17:00:00 -- 0 Calma -- -- 0 -- -- 0
2020-08-24 16:00:00 -- 0 Calma -- -- 0 -- -- 0
2020-08-24 15:00:00 -- 0 Calma -- -- 0 -- -- 0
2020-08-24 14:00:00 -- 0 Calma -- -- 0 -- -- 0
2020-08-24 13:00:00 -- 0 Calma -- -- 0 -- -- 0
2020-08-24 12:00:00 -- 0 Calma -- -- 0 -- -- 0
2020-08-24 11:00:00 -- 0 Calma -- -- 0 -- -- 0
2020-08-24 10:00:00 -- 0 Calma -- -- 0 -- -- 0
2020-08-24 09:00:00 -- 0 Calma -- -- 0 -- -- 0
2020-08-24 08:00:00 -- 0 Calma -- -- 0 -- -- 0
2020-08-24 07:00:00 -- 0 Calma -- -- 0 -- -- 0
2020-08-24 06:00:00 -- 0 Calma -- -- 0 -- -- 0
2020-08-24 05:00:00 -- 0 Calma -- -- 0 -- -- 0
2020-08-24 04:00:00 -- 0 Calma -- -- 0 -- -- 0
2020-08-24 03:00:00 -- 0 Calma -- -- 0 -- -- 0
2020-08-24 02:00:00 -- 0 Calma -- -- 0 -- -- 0
2020-08-24 01:00:00 -- 0 Calma -- -- 0 -- -- 0
2020-08-24 00:00:00 -- 0 Calma -- -- 0 -- -- 0
2020-08-23 23:00:00 -- 0 Calma -- -- 0 -- -- 0
2020-08-23 22:00:00 -- 0 Calma -- -- 0 -- -- 0
2020-08-23 21:00:00 -- 0 Calma -- -- 0 -- -- 0
2020-08-23 20:00:00 -- 0 Calma -- -- 0 -- -- 0
2020-08-23 19:00:00 -- 0 Calma -- -- 0 -- -- 0
2020-08-23 18:00:00 -- 0 Calma -- -- 0 -- -- 0
2020-08-23 17:00:00 -- 0 Calma -- -- 0 -- -- 0
2020-08-23 16:00:00 -- 0 Calma -- -- 0 -- -- 0
2020-08-23 15:00:00 -- 0 Calma -- -- 0 -- -- 0
2020-08-23 14:00:00 -- 0 Calma -- -- 0 -- -- 0
2020-08-23 13:00:00 -- 0 Calma -- -- 0 -- -- 0
2020-08-23 12:00:00 -- 0 Calma -- -- 0 -- -- 0
2020-08-23 11:00:00 -- 0 Calma -- -- 0 -- -- 0
2020-08-23 10:00:00 -- 0 Calma -- -- 0 -- -- 0
2020-08-23 09:00:00 -- 0 Calma -- -- 0 -- -- 0
2020-08-23 08:00:00 -- 0 Calma -- -- 0 -- -- 0
2020-08-23 07:00:00 -- 0 Calma -- -- 0 -- -- 0
2020-08-23 06:00:00 -- 0 Calma -- -- 0 -- -- 0
2020-08-23 05:00:00 -- 0 Calma -- -- 0 -- -- 0
2020-08-23 04:00:00 -- 0 Calma -- -- 0 -- -- 0
2020-08-23 03:00:00 -- 0 Calma -- -- 0 -- -- 0
2020-08-23 02:00:00 -- 0 Calma -- -- 0 -- -- 0
2020-08-23 01:00:00 -- 0 Calma -- -- 0 -- -- 0
2020-08-23 00:00:00 -- 0 Calma -- -- 0 -- -- 0
2020-08-22 23:00:00 -- 0 Calma -- -- 0 -- -- 0
2020-08-22 22:00:00 -- 0 Calma -- -- 0 -- -- 0
2020-08-22 21:00:00 -- 0 Calma -- -- 0 -- -- 0
2020-08-22 20:00:00 -- 0 Calma -- -- 0 -- -- 0
2020-08-22 19:00:00 -- 0 Calma -- -- 0 -- -- 0
2020-08-22 18:00:00 -- 0 Calma -- -- 0 -- -- 0
2020-08-22 17:00:00 -- 0 Calma -- -- 0 -- -- 0
2020-08-22 16:00:00 -- 0 Calma -- -- 0 -- -- 0
2020-08-22 15:00:00 -- 0 Calma -- -- 0 -- -- 0
2020-08-22 14:00:00 -- 0 Calma -- -- 0 -- -- 0
2020-08-22 13:00:00 -- 0 Calma -- -- 0 -- -- 0
2020-08-22 12:00:00 -- 0 Calma -- -- 0 -- -- 0
2020-08-22 11:00:00 -- 0 Calma -- -- 0 -- -- 0
2020-08-22 10:00:00 -- 0 Calma -- -- 0 -- -- 0
2020-08-22 09:00:00 -- 0 Calma -- -- 0 -- -- 0
2020-08-22 08:00:00 -- 0 Calma -- -- 0 -- -- 0
2020-08-22 07:00:00 -- 0 Calma -- -- 0 -- -- 0
2020-08-22 06:00:00 -- 0 Calma -- -- 0 -- -- 0
2020-08-22 05:00:00 -- 0 Calma -- -- 0 -- -- 0
2020-08-22 04:00:00 -- 0 Calma -- -- 0 -- -- 0
2020-08-22 03:00:00 -- 0 Calma 8 Noroeste 0 -- -- 0
2020-08-22 02:00:00 12.2 4 Norte 14 Norte 0 861.8 -- 95
2020-08-22 01:00:00 15 5 Norte 17 Norte 0 861.4 -- 98
2020-08-22 00:00:00 16 2 Norte 19 Nordeste 0 861 -- 97
2020-08-21 23:00:00 16.2 5 Nordeste 18 Nordeste 0 861.3 -- 96
2020-08-21 22:00:00 16.7 0 Calma 10 Noroeste 0.6 860.2 -- 96
2020-08-21 21:00:00 17.5 2 Noroeste 17 Nordeste 0.1 859.9 -- 96
2020-08-21 20:00:00 18 5 Nordeste 20 Nordeste 2.2 859.7 -- 96
2020-08-21 19:00:00 18.3 4 Norte 15 Norte 4.5 859.6 -- 97
2020-08-21 18:00:00 20.2 3 Noroeste 18 Noroeste 1.5 858.6 -- 92
2020-08-21 17:00:00 23.7 7 Noroeste 27 Sur 0 858.1 -- 53
2020-08-21 16:00:00 24.1 13 Sur 31 Sur 0 857.8 -- 50
2020-08-21 15:00:00 24.9 12 Sur 23 Sudoeste 0 858.3 -- 49
2020-08-21 14:00:00 24 5 Sudoeste 23 Sur 0 858 -- 53
2020-08-21 13:00:00 23.9 12 Sur 26 Sur 0 857.9 -- 52
2020-08-21 12:00:00 22.3 13 Sur 21 Sur 0 857.9 -- 53
2020-08-21 11:00:00 20.8 13 Sur 22 Sur 0 857.6 -- 52
2020-08-21 10:00:00 20.2 6 Sur 11 Sudeste 0 857 -- 47
2020-08-21 09:00:00 16.2 7 Sur 12 Sudeste 0 856.7 -- 52
2020-08-21 08:00:00 14.5 7 Sur 12 Sur 0 856.1 -- 52
2020-08-21 07:00:00 14.7 6 Sur 11 Sur 0 855.6 -- 51
2020-08-21 06:00:00 15.7 8 Sur 16 Sudeste 0 855.4 -- 49
2020-08-21 05:00:00 16.4 8 Sur 13 Sur 0 855.4 -- 49
2020-08-21 04:00:00 16.8 6 Sur 11 Sur 0 855.2 -- 50
2020-08-21 03:00:00 15.7 6 Norte 14 Norte 0 855.2 -- 78
2020-08-21 02:00:00 16.6 4 Norte 20 Este 0 855.5 -- 47
2020-08-21 01:00:00 18.3 4 Este 13 Sudeste 0 855.5 -- 34
2020-08-21 00:00:00 19 4 Sur 17 Sudeste 0 855 -- 29